Time;durP1;ratioP1;P1;durP2;ratioP2;P2;SDS_P1;SDS_P2;PMS_P1;PMS_P2;Temp;Humidity;BMP_temperature;BMP_pressure;BME280_temperature;BME280_humidity;BME280_pressure;Samples;Min_cycle;Max_cycle;Signal;HPM_P1;HPM_P2
2022/09/23 00:00:36;;;;;;;10.15;4.63;;;14.40;99.90;;;;;;5014796;28;20022;-71
2022/09/23 00:03:02;;;;;;;10.90;4.65;;;14.10;99.90;;;;;;5015774;28;20069;-71
2022/09/23 00:05:30;;;;;;;6.97;4.72;;;14.10;99.90;;;;;;5015644;28;20444;-71
2022/09/23 00:07:57;;;;;;;13.00;5.28;;;14.00;99.90;;;;;;5015907;28;20033;-71
2022/09/23 00:10:25;;;;;;;8.70;5.30;;;13.80;99.90;;;;;;5014212;28;20022;-70
2022/09/23 00:12:51;;;;;;;9.43;5.18;;;13.80;99.90;;;;;;5015617;28;20030;-67
2022/09/23 00:15:17;;;;;;;9.10;5.22;;;14.00;99.90;;;;;;5015509;28;20101;-70
2022/09/23 00:17:44;;;;;;;10.57;5.40;;;14.00;99.90;;;;;;5015689;28;20187;-70
2022/09/23 00:20:10;;;;;;;10.38;5.35;;;13.60;99.90;;;;;;5015474;28;20022;-70
2022/09/23 00:22:37;;;;;;;8.80;4.82;;;13.70;99.90;;;;;;5015602;28;20038;-68
2022/09/23 00:25:04;;;;;;;9.07;5.03;;;13.80;99.90;;;;;;5015125;28;20034;-71
2022/09/23 00:27:32;;;;;;;11.90;5.55;;;13.50;99.90;;;;;;5015388;28;20021;-71
2022/09/23 00:29:57;;;;;;;12.95;5.65;;;13.00;99.90;;;;;;5015028;28;20030;-70
2022/09/23 00:32:23;;;;;;;10.02;6.07;;;12.90;99.90;;;;;;5015240;28;20372;-71
2022/09/23 00:34:51;;;;;;;13.98;6.15;;;12.90;99.90;;;;;;5015186;28;20046;-71
2022/09/23 00:37:17;;;;;;;11.35;6.22;;;13.10;99.90;;;;;;5013824;28;20457;-71
2022/09/23 00:39:44;;;;;;;11.98;5.90;;;13.30;99.90;;;;;;5014972;28;20025;-71
2022/09/23 00:42:17;;;;;;;12.85;6.20;;;13.20;99.90;;;;;;5014911;28;20141;-71
2022/09/23 00:44:56;;;;;;;15.05;6.82;;;13.30;99.90;;;;;;5014609;28;20030;-71
2022/09/23 00:47:34;;;;;;;16.95;6.70;;;13.60;99.90;;;;;;5015060;28;20072;-71
2022/09/23 00:50:11;;;;;;;16.27;6.32;;;13.40;99.90;;;;;;5014812;28;20485;-72
2022/09/23 00:52:38;;;;;;;12.25;6.97;;;13.40;99.90;;;;;;5013532;28;20402;-71
2022/09/23 00:55:13;;;;;;;10.65;5.63;;;13.50;99.90;;;;;;5014480;28;20061;-71
2022/09/23 00:57:40;;;;;;;16.45;6.15;;;13.50;99.90;;;;;;5014776;28;20034;-71
2022/09/23 01:00:07;;;;;;;9.88;5.35;;;13.60;99.90;;;;;;5015042;28;20076;-71
2022/09/23 01:02:33;;;;;;;23.27;6.25;;;13.50;99.90;;;;;;5014738;28;20132;-71
2022/09/23 01:05:02;;;;;;;16.92;6.13;;;13.50;99.90;;;;;;5000958;28;20447;-71
2022/09/23 01:07:29;;;;;;;11.98;5.88;;;13.50;99.90;;;;;;5014754;28;20064;-70
2022/09/23 01:09:56;;;;;;;14.95;6.38;;;13.60;99.90;;;;;;5014483;28;20022;-71
2022/09/23 01:12:38;;;;;;;11.38;6.40;;;13.50;99.90;;;;;;5011495;28;20390;-71
2022/09/23 01:15:14;;;;;;;12.57;5.78;;;13.40;99.90;;;;;;5007691;28;20466;-71
2022/09/23 01:18:06;;;;;;;14.07;5.60;;;13.10;99.90;;;;;;4996805;28;20471;-71
2022/09/23 01:20:52;;;;;;;10.75;6.50;;;13.10;99.90;;;;;;5014291;28;20044;-71
2022/09/23 01:23:37;;;;;;;12.18;5.95;;;13.00;99.90;;;;;;5013963;28;20038;-71
2022/09/23 01:26:24;;;;;;;13.85;6.45;;;12.90;99.90;;;;;;5013028;28;20050;-71
2022/09/23 01:28:55;;;;;;;7.75;5.28;;;12.80;99.90;;;;;;5013812;28;20022;-71
2022/09/23 01:31:46;;;;;;;14.88;6.38;;;12.90;99.90;;;;;;5014241;28;20070;-71
2022/09/23 01:34:28;;;;;;;13.45;5.68;;;13.30;99.90;;;;;;5014050;28;20030;-70
2022/09/23 01:37:02;;;;;;;10.63;6.15;;;13.00;99.90;;;;;;5012642;28;20054;-71
2022/09/23 01:39:40;;;;;;;13.60;5.93;;;12.90;99.90;;;;;;5014314;28;20084;-71
2022/09/23 01:42:32;;;;;;;14.40;6.90;;;13.00;99.90;;;;;;5013725;28;20045;-71
2022/09/23 01:45:23;;;;;;;13.70;6.28;;;13.20;99.90;;;;;;5014072;28;20026;-70
2022/09/23 01:48:00;;;;;;;12.50;6.43;;;13.10;99.90;;;;;;5013727;28;20037;-71
2022/09/23 01:53:24;;;;;;;9.80;5.77;;;13.00;99.90;;;;;;5002007;28;20041;-71
2022/09/23 01:55:56;;;;;;;18.85;6.72;;;12.90;99.90;;;;;;5012913;28;20029;-70
2022/09/23 01:58:45;;;;;;;16.63;6.05;;;12.80;99.90;;;;;;5013937;28;20038;-71
2022/09/23 02:01:20;;;;;;;9.20;6.13;;;12.70;99.90;;;;;;5013380;28;20037;-71
2022/09/23 02:04:02;;;;;;;11.88;5.95;;;12.70;99.90;;;;;;5013744;28;20125;-71
2022/09/23 02:06:47;;;;;;;14.20;6.68;;;12.70;99.90;;;;;;5013161;28;20018;-71
2022/09/23 02:09:23;;;;;;;12.18;5.80;;;12.40;99.90;;;;;;5013761;28;20090;-71
2022/09/23 02:11:52;;;;;;;14.77;5.72;;;12.30;99.90;;;;;;5013506;28;20082;-71
2022/09/23 02:14:27;;;;;;;11.65;5.63;;;12.50;99.90;;;;;;5013572;28;20030;-71
2022/09/23 02:16:58;;;;;;;16.42;6.05;;;12.50;99.90;;;;;;5011991;28;20033;-71
2022/09/23 02:19:30;;;;;;;16.15;6.10;;;12.70;99.90;;;;;;5013493;28;20029;-71
2022/09/23 02:22:02;;;;;;;14.93;6.32;;;12.90;99.90;;;;;;5012820;28;20068;-71
2022/09/23 02:24:33;;;;;;;11.38;6.32;;;12.50;99.90;;;;;;5012294;28;20022;-71
2022/09/23 02:27:27;;;;;;;19.30;6.05;;;12.40;99.90;;;;;;5011845;28;20030;-71
2022/09/23 02:30:02;;;;;;;13.40;6.03;;;12.30;99.90;;;;;;5013121;28;20034;-71
2022/09/23 02:32:27;;;;;;;14.88;5.60;;;12.20;99.90;;;;;;5013316;28;20034;-71
2022/09/23 02:35:12;;;;;;;12.02;5.90;;;12.40;99.90;;;;;;5012923;28;20032;-71
2022/09/23 02:37:46;;;;;;;15.70;6.57;;;12.40;99.90;;;;;;4997044;28;20431;-70
2022/09/23 02:40:25;;;;;;;13.35;5.68;;;12.60;99.90;;;;;;5008808;28;20386;-71
2022/09/23 02:42:50;;;;;;;12.55;5.68;;;12.80;99.90;;;;;;5013023;28;20356;-71
2022/09/23 02:45:16;;;;;;;14.10;5.75;;;12.70;99.90;;;;;;5011971;28;20030;-72
2022/09/23 02:47:46;;;;;;;11.20;5.80;;;12.60;99.90;;;;;;5012935;28;20455;-72
2022/09/23 02:50:12;;;;;;;12.80;6.25;;;12.60;99.90;;;;;;5012799;28;20113;-72
2022/09/23 02:52:38;;;;;;;15.35;5.68;;;12.80;99.90;;;;;;5012785;28;20049;-69
2022/09/23 02:55:07;;;;;;;10.85;6.63;;;12.90;99.90;;;;;;5013188;28;20459;-72
2022/09/23 02:57:33;;;;;;;23.23;6.72;;;13.00;99.90;;;;;;5012979;28;20028;-73
2022/09/23 03:00:01;;;;;;;15.10;6.72;;;13.00;99.90;;;;;;5012889;28;20497;-71
2022/09/23 03:02:50;;;;;;;11.75;6.65;;;12.90;99.90;;;;;;5012514;28;20121;-71
2022/09/23 03:05:30;;;;;;;18.50;6.25;;;13.00;99.90;;;;;;5011374;28;20111;-71
2022/09/23 03:08:17;;;;;;;19.60;6.97;;;13.20;99.90;;;;;;5016646;28;20076;-71
2022/09/23 03:11:03;;;;;;;12.35;6.40;;;13.10;99.90;;;;;;5016490;28;20475;-71
2022/09/23 03:13:39;;;;;;;10.95;6.60;;;13.10;99.90;;;;;;5016767;28;20493;-71
2022/09/23 03:16:43;;;;;;;9.10;6.05;;;13.00;99.90;;;;;;5016713;28;20121;-71
2022/09/23 03:19:20;;;;;;;9.90;6.63;;;12.90;99.90;;;;;;4981697;28;20459;-66
2022/09/23 03:22:07;;;;;;;16.42;6.03;;;13.00;99.90;;;;;;5014223;28;20037;-71
2022/09/23 03:24:34;;;;;;;15.10;6.35;;;13.00;99.90;;;;;;5016474;28;20058;-72
2022/09/23 03:27:04;;;;;;;13.18;6.32;;;13.10;99.90;;;;;;5015224;28;20402;-71
2022/09/23 03:29:31;;;;;;;13.57;5.85;;;13.20;99.90;;;;;;5016273;28;20026;-71
2022/09/23 03:31:58;;;;;;;15.20;5.93;;;13.10;99.90;;;;;;5016212;28;20034;-71
2022/09/23 03:34:28;;;;;;;12.18;6.40;;;13.10;99.90;;;;;;5015852;28;20080;-71
2022/09/23 03:37:04;;;;;;;13.52;6.43;;;13.10;99.90;;;;;;5016253;28;20037;-71
2022/09/23 03:39:35;;;;;;;14.75;6.30;;;13.00;99.90;;;;;;5016338;28;20026;-71
2022/09/23 03:42:29;;;;;;;13.40;5.95;;;13.00;99.90;;;;;;5015946;28;20081;-71
2022/09/23 03:44:56;;;;;;;13.63;6.25;;;12.80;99.90;;;;;;5016057;28;20026;-71
2022/09/23 03:47:24;;;;;;;19.42;6.90;;;12.70;99.90;;;;;;5015624;28;20025;-71
2022/09/23 03:49:52;;;;;;;11.32;6.28;;;12.70;99.90;;;;;;5015997;28;20033;-71
2022/09/23 03:52:20;;;;;;;14.25;5.90;;;12.90;99.90;;;;;;5015784;28;20054;-71
2022/09/23 03:54:46;;;;;;;12.48;6.35;;;13.00;99.90;;;;;;5015721;28;20022;-71
2022/09/23 03:57:13;;;;;;;10.20;6.10;;;13.10;99.90;;;;;;5015904;28;20022;-71
2022/09/23 03:59:39;;;;;;;9.32;5.68;;;13.00;99.90;;;;;;5015672;28;20022;-71
2022/09/23 04:02:06;;;;;;;13.80;6.00;;;13.30;99.90;;;;;;5015377;28;20049;-71
2022/09/23 04:04:34;;;;;;;14.07;6.40;;;13.30;99.90;;;;;;5015602;28;20022;-71
2022/09/23 04:07:01;;;;;;;15.50;6.72;;;13.40;99.90;;;;;;5015727;28;20045;-71
2022/09/23 04:09:27;;;;;;;8.70;6.10;;;13.50;99.90;;;;;;5015589;28;20025;-71
2022/09/23 04:11:53;;;;;;;11.25;6.45;;;13.50;99.90;;;;;;4997936;28;20033;-71
2022/09/23 04:14:20;;;;;;;14.18;5.97;;;13.50;99.90;;;;;;5015334;28;20037;-72
2022/09/23 04:16:48;;;;;;;12.27;6.43;;;13.30;99.90;;;;;;5015339;28;20040;-71
2022/09/23 04:19:14;;;;;;;13.02;5.75;;;13.20;99.90;;;;;;5014512;28;20077;-71
2022/09/23 04:21:41;;;;;;;11.85;6.85;;;13.20;99.90;;;;;;5014213;28;20022;-71
2022/09/23 04:24:08;;;;;;;8.50;5.63;;;13.10;99.90;;;;;;5015255;28;20022;-71
2022/09/23 04:26:35;;;;;;;11.27;5.75;;;13.30;99.90;;;;;;5015242;28;20041;-71
2022/09/23 04:29:01;;;;;;;12.85;6.63;;;13.50;99.90;;;;;;5015222;28;20037;-71
2022/09/23 04:31:27;;;;;;;15.93;7.03;;;13.20;99.90;;;;;;5015035;28;20140;-71
2022/09/23 04:33:53;;;;;;;19.08;6.53;;;13.40;99.90;;;;;;5015054;28;20037;-71
2022/09/23 04:36:19;;;;;;;14.55;7.28;;;13.50;99.90;;;;;;5015224;28;20038;-71
2022/09/23 04:38:47;;;;;;;11.80;6.15;;;13.50;99.90;;;;;;5014995;28;20026;-69
2022/09/23 04:41:13;;;;;;;13.00;5.97;;;13.30;99.90;;;;;;5015149;28;20026;-71
2022/09/23 04:43:40;;;;;;;13.27;6.82;;;13.20;99.90;;;;;;5014927;28;20025;-71
2022/09/23 04:46:09;;;;;;;16.90;6.60;;;13.20;99.90;;;;;;5013202;28;20030;-72
2022/09/23 04:48:36;;;;;;;10.27;5.80;;;13.10;99.90;;;;;;5015031;28;20025;-71
2022/09/23 04:51:14;;;;;;;11.15;6.40;;;13.10;99.90;;;;;;5014946;28;20026;-72
2022/09/23 04:53:42;;;;;;;15.68;5.97;;;13.30;99.90;;;;;;5014764;28;20402;-71
2022/09/23 04:56:19;;;;;;;17.23;6.18;;;13.30;99.90;;;;;;5014756;28;20025;-71
2022/09/23 04:58:46;;;;;;;14.60;6.60;;;13.10;99.90;;;;;;5014586;28;20026;-71
2022/09/23 05:01:13;;;;;;;13.70;6.35;;;13.10;99.90;;;;;;5014398;28;20387;-71
2022/09/23 05:03:40;;;;;;;13.00;6.38;;;13.10;99.90;;;;;;5014797;28;20493;-71
2022/09/23 05:06:07;;;;;;;14.43;6.25;;;13.10;99.90;;;;;;5013088;28;20120;-71
2022/09/23 05:08:34;;;;;;;16.23;5.88;;;13.20;99.90;;;;;;5013582;28;20095;-71
2022/09/23 05:11:03;;;;;;;13.75;5.85;;;13.10;99.90;;;;;;5014371;28;20029;-71
2022/09/23 05:13:30;;;;;;;14.75;6.20;;;13.10;99.90;;;;;;5014466;28;20057;-71
2022/09/23 05:16:05;;;;;;;14.27;6.40;;;13.00;99.90;;;;;;5014034;28;20387;-71
2022/09/23 05:18:31;;;;;;;14.98;6.55;;;13.00;99.90;;;;;;5014441;28;20068;-71
2022/09/23 05:20:57;;;;;;;16.63;6.28;;;12.90;99.90;;;;;;5014047;28;20025;-71
2022/09/23 05:23:24;;;;;;;14.73;6.30;;;12.90;99.90;;;;;;5014274;28;20394;-71
2022/09/23 05:25:57;;;;;;;16.30;7.57;;;13.00;99.90;;;;;;5014049;28;20026;-70
2022/09/23 05:28:26;;;;;;;14.00;6.38;;;13.20;99.90;;;;;;5014266;28;20065;-70
2022/09/23 05:30:53;;;;;;;16.02;7.00;;;13.10;99.90;;;;;;5013624;28;20037;-71
2022/09/23 05:33:18;;;;;;;16.13;6.10;;;13.10;99.90;;;;;;5013811;28;20030;-71
2022/09/23 05:35:47;;;;;;;17.60;6.47;;;13.10;99.90;;;;;;5014029;28;20045;-71
2022/09/23 05:38:15;;;;;;;14.88;6.53;;;13.00;99.90;;;;;;5014161;28;20034;-71
2022/09/23 05:40:42;;;;;;;10.82;7.30;;;13.20;99.90;;;;;;5012648;28;20014;-71
2022/09/23 05:43:07;;;;;;;24.27;7.28;;;13.20;99.90;;;;;;5013441;28;20438;-71
2022/09/23 05:45:34;;;;;;;10.23;6.38;;;13.30;99.90;;;;;;5013625;28;20032;-70
2022/09/23 05:48:00;;;;;;;10.50;6.20;;;13.20;99.90;;;;;;5013971;28;20470;-72
2022/09/23 05:50:26;;;;;;;19.20;6.50;;;13.10;99.90;;;;;;5012513;28;20109;-71
2022/09/23 05:52:52;;;;;;;15.23;6.60;;;13.00;99.90;;;;;;5013861;28;20013;-70
2022/09/23 05:55:17;;;;;;;15.23;6.63;;;13.00;99.90;;;;;;5013503;28;20065;-70
2022/09/23 05:57:43;;;;;;;13.15;7.00;;;12.80;99.90;;;;;;5013220;28;20451;-71
2022/09/23 06:00:09;;;;;;;13.98;6.38;;;12.80;99.90;;;;;;5013897;28;20080;-71
2022/09/23 06:02:37;;;;;;;13.93;7.57;;;12.70;99.90;;;;;;5013417;28;20049;-72
2022/09/23 06:05:03;;;;;;;11.88;6.75;;;12.60;99.90;;;;;;5014144;28;20034;-71
2022/09/23 06:07:30;;;;;;;11.93;6.57;;;12.70;99.90;;;;;;5013375;28;20032;-71
2022/09/23 06:09:56;;;;;;;11.68;7.07;;;12.80;99.90;;;;;;5013377;28;20030;-71
2022/09/23 06:12:22;;;;;;;19.92;6.97;;;12.80;99.90;;;;;;5006410;28;20025;-70
2022/09/23 06:14:49;;;;;;;17.40;7.28;;;12.70;99.90;;;;;;5012349;28;20030;-70
2022/09/23 06:17:15;;;;;;;26.35;6.88;;;12.60;99.90;;;;;;5017421;28;20029;-70
2022/09/23 06:19:41;;;;;;;16.15;6.60;;;12.90;99.90;;;;;;5015519;28;20021;-70
2022/09/23 06:22:06;;;;;;;20.20;6.28;;;12.90;99.90;;;;;;5016414;28;20060;-71
2022/09/23 06:24:32;;;;;;;11.50;6.07;;;13.00;99.90;;;;;;5013657;28;20026;-71
2022/09/23 06:26:59;;;;;;;15.80;6.38;;;13.00;99.90;;;;;;5027459;28;20030;-70
2022/09/23 06:29:25;;;;;;;14.95;5.88;;;13.00;99.90;;;;;;5026753;28;20036;-70
2022/09/23 06:31:51;;;;;;;13.63;6.22;;;12.80;99.90;;;;;;5019557;28;20030;-70
2022/09/23 06:34:16;;;;;;;15.02;5.53;;;12.80;99.90;;;;;;5007829;28;20544;-71
2022/09/23 06:36:42;;;;;;;12.50;5.95;;;12.70;99.90;;;;;;5009916;28;20029;-70
2022/09/23 06:39:08;;;;;;;16.25;5.75;;;12.90;99.90;;;;;;5028329;28;20466;-70
2022/09/23 06:41:34;;;;;;;14.27;6.68;;;13.00;99.90;;;;;;5020570;28;20025;-71
2022/09/23 06:44:00;;;;;;;13.20;5.85;;;13.40;99.90;;;;;;5017426;28;20413;-70
2022/09/23 06:46:26;;;;;;;15.45;6.65;;;13.40;99.90;;;;;;5015487;28;20030;-70
2022/09/23 06:48:52;;;;;;;16.45;6.05;;;13.10;99.90;;;;;;5013909;28;20379;-71
2022/09/23 06:51:18;;;;;;;17.42;7.35;;;13.10;99.90;;;;;;5027729;28;20029;-70
2022/09/23 06:53:45;;;;;;;13.95;6.15;;;13.40;99.90;;;;;;5024251;28;20022;-70
2022/09/23 06:56:16;;;;;;;9.93;5.97;;;13.50;99.90;;;;;;5016644;28;20051;-68
2022/09/23 06:58:42;;;;;;;12.27;6.47;;;13.50;99.90;;;;;;5014457;28;20022;-70
2022/09/23 07:01:17;;;;;;;15.50;6.80;;;13.60;99.90;;;;;;5025227;28;20495;-70
2022/09/23 07:03:44;;;;;;;15.30;5.78;;;13.50;99.90;;;;;;5011777;28;20030;-70
2022/09/23 07:06:10;;;;;;;13.10;6.60;;;13.30;99.90;;;;;;5009768;28;20463;-68
2022/09/23 07:08:36;;;;;;;11.85;6.38;;;13.60;99.90;;;;;;5009813;28;20026;-70
2022/09/23 07:11:04;;;;;;;14.48;6.05;;;13.50;99.90;;;;;;5010209;28;20182;-69
2022/09/23 07:13:35;;;;;;;15.75;6.25;;;13.80;99.90;;;;;;5012624;28;20029;-70
2022/09/23 07:16:01;;;;;;;18.73;5.50;;;13.80;99.90;;;;;;5012728;28;20042;-70
2022/09/23 07:18:31;;;;;;;10.25;6.10;;;13.60;99.90;;;;;;5008341;28;20091;-70
2022/09/23 07:21:05;;;;;;;12.48;6.15;;;13.50;99.90;;;;;;5012599;28;20030;-70
2022/09/23 07:23:32;;;;;;;15.30;5.93;;;13.50;99.90;;;;;;5012533;28;20049;-70
2022/09/23 07:25:58;;;;;;;12.27;5.65;;;13.30;99.90;;;;;;5012588;28;20120;-70
2022/09/23 07:28:27;;;;;;;11.35;5.80;;;13.50;99.90;;;;;;5010181;28;20081;-70
2022/09/23 07:30:54;;;;;;;19.15;6.32;;;13.60;99.90;;;;;;5012641;28;20391;-71
2022/09/23 07:33:20;;;;;;;13.05;6.03;;;13.70;99.90;;;;;;5012386;28;20037;-70
2022/09/23 07:35:46;;;;;;;17.20;6.18;;;14.10;99.90;;;;;;5010244;28;20030;-68
2022/09/23 07:38:12;;;;;;;14.15;6.53;;;14.20;99.90;;;;;;5007766;28;20399;-71
2022/09/23 07:40:38;;;;;;;10.75;6.03;;;14.20;99.90;;;;;;5003660;28;20482;-70
2022/09/23 07:43:05;;;;;;;11.82;6.15;;;14.20;99.90;;;;;;5011099;28;20187;-66
2022/09/23 07:45:32;;;;;;;11.32;6.40;;;14.00;99.90;;;;;;5018770;28;20775;-70
2022/09/23 07:47:59;;;;;;;13.73;5.22;;;13.90;99.90;;;;;;5016541;28;20037;-70
2022/09/23 07:50:25;;;;;;;16.80;5.40;;;13.80;99.90;;;;;;5016461;28;20108;-70
2022/09/23 07:52:53;;;;;;;12.55;5.38;;;13.80;99.90;;;;;;5012247;28;20141;-71
2022/09/23 07:55:20;;;;;;;12.68;4.90;;;14.00;99.90;;;;;;5024819;28;20115;-70
2022/09/23 07:57:45;;;;;;;12.52;5.75;;;14.00;99.90;;;;;;5021711;28;20018;-70
2022/09/23 08:00:12;;;;;;;14.02;5.57;;;14.00;99.90;;;;;;5020993;28;20038;-70
2022/09/23 08:02:39;;;;;;;10.45;5.10;;;13.90;99.90;;;;;;5017225;28;20085;-70
2022/09/23 08:05:05;;;;;;;15.65;6.03;;;14.10;99.90;;;;;;5021921;28;20014;-70
2022/09/23 08:07:33;;;;;;;15.90;6.47;;;13.90;99.90;;;;;;5023972;28;20129;-70
2022/09/23 08:10:00;;;;;;;12.18;5.80;;;14.30;99.90;;;;;;5020478;28;20485;-70
2022/09/23 08:12:28;;;;;;;13.85;5.65;;;14.60;99.90;;;;;;5021444;28;20045;-70
2022/09/23 08:14:54;;;;;;;14.10;5.13;;;14.40;99.90;;;;;;5015600;28;20036;-70
2022/09/23 08:17:20;;;;;;;9.82;4.88;;;14.50;99.90;;;;;;5025044;28;20034;-70
2022/09/23 08:19:45;;;;;;;10.98;5.50;;;14.40;99.90;;;;;;5022795;28;20108;-71
2022/09/23 08:22:11;;;;;;;15.98;5.32;;;14.30;99.90;;;;;;5025646;28;20046;-70
2022/09/23 08:24:37;;;;;;;9.13;5.38;;;14.40;99.90;;;;;;5025408;28;20026;-71
2022/09/23 08:27:03;;;;;;;9.57;5.65;;;14.50;99.90;;;;;;5018323;28;20025;-70
2022/09/23 08:29:28;;;;;;;17.75;6.32;;;14.70;99.90;;;;;;5014745;28;20545;-70
2022/09/23 08:31:54;;;;;;;9.05;5.30;;;14.90;99.90;;;;;;5026295;28;20062;-70
2022/09/23 08:34:22;;;;;;;11.15;5.15;;;15.00;99.90;;;;;;5021624;28;20128;-70
2022/09/23 08:36:48;;;;;;;14.98;5.80;;;14.70;99.90;;;;;;5011442;28;20022;-70
2022/09/23 08:39:19;;;;;;;23.67;6.32;;;14.70;99.90;;;;;;5012944;28;20045;-70
2022/09/23 08:42:17;;;;;;;13.55;5.35;;;14.70;99.90;;;;;;5027498;28;20076;-70
2022/09/23 08:44:51;;;;;;;15.18;5.78;;;14.50;99.90;;;;;;5010736;28;20184;-70
2022/09/23 08:47:28;;;;;;;13.82;5.50;;;14.80;99.90;;;;;;5021785;28;20113;-70
2022/09/23 08:50:19;;;;;;;9.13;5.97;;;15.00;99.90;;;;;;5007925;28;20061;-70
2022/09/23 08:52:55;;;;;;;8.93;5.50;;;15.30;99.90;;;;;;5002156;28;20226;-71
2022/09/23 08:55:48;;;;;;;9.80;5.80;;;15.60;99.90;;;;;;5023712;28;20065;-70
2022/09/23 08:58:51;;;;;;;12.43;5.60;;;15.50;99.90;;;;;;5011645;28;20034;-70
2022/09/23 09:01:35;;;;;;;11.30;6.78;;;15.50;99.90;;;;;;5014480;28;20038;-70
2022/09/23 09:04:13;;;;;;;19.38;7.10;;;15.20;99.90;;;;;;5010040;28;20382;-70
2022/09/23 09:06:43;;;;;;;26.45;7.82;;;15.30;99.90;;;;;;5016314;28;20117;-70
2022/09/23 09:09:35;;;;;;;15.70;6.47;;;15.30;99.90;;;;;;5012081;28;20124;-70
2022/09/23 09:12:18;;;;;;;15.80;7.10;;;15.50;99.90;;;;;;5013925;28;20038;-70
2022/09/23 09:15:06;;;;;;;12.15;6.20;;;15.30;99.90;;;;;;5018468;28;20017;-71
2022/09/23 09:18:09;;;;;;;12.63;5.90;;;15.40;99.90;;;;;;5017379;28;20026;-70
2022/09/23 09:20:37;;;;;;;;;;;15.70;99.90;;;;;;5014075;28;20482;-70
2022/09/23 09:23:21;;;;;;;11.10;6.00;;;15.70;99.90;;;;;;5026897;28;20393;-70
2022/09/23 09:25:56;;;;;;;13.15;6.32;;;15.50;99.90;;;;;;5017585;28;20033;-70
2022/09/23 09:28:29;;;;;;;16.25;6.05;;;15.70;99.90;;;;;;5016426;28;20034;-70
2022/09/23 09:31:34;;;;;;;21.17;7.10;;;15.80;99.90;;;;;;5020257;28;20087;-70
2022/09/23 09:34:05;;;;;;;12.07;6.38;;;15.90;99.90;;;;;;5016927;28;20042;-70
2022/09/23 09:36:46;;;;;;;21.70;6.63;;;16.00;99.90;;;;;;5008046;28;20040;-70
2022/09/23 09:39:15;;;;;;;14.63;6.72;;;16.60;99.90;;;;;;5005005;28;20474;-70
2022/09/23 09:41:46;;;;;;;17.17;6.30;;;16.70;99.90;;;;;;5026373;28;20494;-71
2022/09/23 09:44:23;;;;;;;14.55;6.18;;;16.90;99.90;;;;;;5022905;28;20482;-70
2022/09/23 09:47:27;;;;;;;15.65;6.32;;;17.00;99.90;;;;;;5025278;28;20033;-70
2022/09/23 09:50:09;;;;;;;11.50;6.78;;;16.90;99.90;;;;;;5008540;28;20375;-71
2022/09/23 09:52:35;;;;;;;13.02;6.05;;;16.40;99.90;;;;;;5016120;28;20029;-71
2022/09/23 09:55:24;;;;;;;17.95;6.47;;;16.70;99.90;;;;;;5026790;28;20092;-70
2022/09/23 09:58:03;;;;;;;20.48;6.30;;;16.70;99.90;;;;;;5013045;28;20025;-72
2022/09/23 10:00:29;;;;;;;18.92;6.22;;;16.90;99.90;;;;;;5014513;28;20037;-70
2022/09/23 10:02:59;;;;;;;13.10;6.50;;;16.80;99.90;;;;;;5013190;28;20046;-70
2022/09/23 10:05:33;;;;;;;15.32;5.82;;;17.10;99.90;;;;;;5020435;28;20091;-70
2022/09/23 10:08:17;;;;;;;14.30;6.53;;;17.10;99.90;;;;;;5018523;28;20420;-71
2022/09/23 10:10:54;;;;;;;14.35;6.15;;;16.80;99.90;;;;;;5011933;28;20029;-70
2022/09/23 10:13:23;;;;;;;19.17;5.50;;;16.90;99.90;;;;;;5014475;28;20026;-70
2022/09/23 10:15:53;;;;;;;15.27;6.63;;;16.90;99.90;;;;;;5022964;28;20417;-71
2022/09/23 10:18:47;;;;;;;14.20;5.80;;;17.00;99.90;;;;;;5023245;28;20025;-70
2022/09/23 10:21:19;;;;;;;8.00;5.38;;;17.00;99.90;;;;;;5022053;28;20429;-71
2022/09/23 10:23:51;;;;;;;16.02;5.82;;;17.10;99.90;;;;;;5014292;28;20394;-70
2022/09/23 10:26:40;;;;;;;14.27;6.32;;;17.00;99.90;;;;;;5019261;28;20029;-70
2022/09/23 10:29:38;;;;;;;11.80;5.55;;;17.00;99.90;;;;;;4999205;28;20033;-70
2022/09/23 10:32:27;;;;;;;12.43;5.90;;;17.00;99.90;;;;;;5008965;28;20100;-70
2022/09/23 10:35:02;;;;;;;15.30;5.78;;;17.20;99.90;;;;;;5010971;28;20033;-70
2022/09/23 10:37:37;;;;;;;13.52;5.05;;;17.40;99.90;;;;;;5014065;28;20036;-70
2022/09/23 10:46:38;;;;;;;10.52;5.18;;;18.20;99.90;;;;;;5012835;28;20534;-70
2022/09/23 10:49:26;;;;;;;14.15;5.45;;;18.70;99.90;;;;;;5012502;28;20078;-70
2022/09/23 10:51:55;;;;;;;13.13;5.43;;;18.50;99.90;;;;;;5006289;28;20100;-70
2022/09/23 10:54:41;;;;;;;7.82;4.90;;;17.90;99.90;;;;;;5012623;28;20018;-70
2022/09/23 10:57:39;;;;;;;8.77;5.05;;;17.60;99.90;;;;;;5008537;28;20026;-69
2022/09/23 11:00:14;;;;;;;15.90;5.63;;;18.00;99.90;;;;;;5012487;28;20085;-70
2022/09/23 11:03:19;;;;;;;10.65;5.20;;;18.50;99.90;;;;;;5012309;28;20041;-65
2022/09/23 11:06:07;;;;;;;15.75;5.18;;;18.70;99.90;;;;;;5008407;28;20040;-72
2022/09/23 11:08:39;;;;;;;12.02;5.50;;;18.80;99.90;;;;;;5012086;28;20419;-70
2022/09/23 11:11:18;;;;;;;16.15;5.45;;;18.80;99.90;;;;;;5011490;28;20032;-70
2022/09/23 11:14:26;;;;;;;15.23;6.18;;;18.50;99.90;;;;;;5010914;28;20029;-71
2022/09/23 11:17:04;;;;;;;10.82;5.53;;;18.40;99.90;;;;;;5009451;28;20124;-70
2022/09/23 11:19:33;;;;;;;12.77;6.15;;;18.50;99.90;;;;;;5012401;28;20145;-70
2022/09/23 11:22:15;;;;;;;13.32;6.10;;;18.50;99.90;;;;;;5012403;28;20060;-70
2022/09/23 11:25:17;;;;;;;21.05;5.68;;;18.80;99.90;;;;;;5012369;28;20022;-70
2022/09/23 11:27:58;;;;;;;14.18;5.95;;;18.40;99.90;;;;;;5007920;28;20517;-70
2022/09/23 11:30:47;;;;;;;11.27;5.45;;;18.30;99.90;;;;;;5016031;28;20096;-70
2022/09/23 11:33:25;;;;;;;17.30;5.68;;;18.40;99.90;;;;;;5015361;28;20045;-66
2022/09/23 11:36:01;;;;;;;15.02;5.78;;;18.60;99.90;;;;;;5015183;28;20030;-70
2022/09/23 11:38:36;;;;;;;12.73;5.30;;;18.50;99.90;;;;;;5016250;28;20030;-70
2022/09/23 11:41:20;;;;;;;21.98;5.90;;;18.40;99.90;;;;;;5016239;28;20041;-71
2022/09/23 11:43:52;;;;;;;15.55;5.53;;;18.40;99.90;;;;;;5016064;28;20086;-70
2022/09/23 11:46:25;;;;;;;14.00;6.18;;;18.20;99.90;;;;;;5014778;28;20184;-70
2022/09/23 11:49:06;;;;;;;13.48;6.18;;;18.40;99.90;;;;;;5016022;28;20047;-70
2022/09/23 11:51:39;;;;;;;17.88;6.80;;;18.50;99.90;;;;;;5016108;28;20060;-70
2022/09/23 11:54:20;;;;;;;10.82;5.95;;;18.60;99.90;;;;;;5015928;28;20489;-70
2022/09/23 11:56:59;;;;;;;18.48;7.10;;;18.70;99.90;;;;;;5016056;28;20053;-70
2022/09/23 11:59:40;;;;;;;12.77;4.88;;;18.60;99.90;;;;;;5015711;28;20030;-70
2022/09/23 12:02:26;;;;;;;13.80;5.97;;;18.40;99.90;;;;;;5015573;28;20030;-69
2022/09/23 12:05:17;;;;;;;13.98;5.68;;;18.90;99.90;;;;;;4999988;28;20053;-71
2022/09/23 12:07:55;;;;;;;11.88;5.45;;;18.80;99.90;;;;;;5012345;28;20485;-70
2022/09/23 12:10:26;;;;;;;10.40;5.95;;;18.80;99.90;;;;;;5015603;28;20108;-70
2022/09/23 12:13:26;;;;;;;16.42;5.03;;;18.80;99.90;;;;;;5015672;28;20110;-70
2022/09/23 12:16:21;;;;;;;10.73;5.00;;;19.00;99.90;;;;;;5013646;28;20398;-70
2022/09/23 12:19:43;;;;;;;12.20;5.15;;;19.70;99.90;;;;;;4992223;28;20045;-70
2022/09/23 12:22:37;;;;;;;23.35;5.32;;;19.80;99.90;;;;;;4955173;29;20043;-70
2022/09/23 12:25:34;;;;;;;7.60;4.47;;;19.80;99.90;;;;;;4938887;29;20031;-70
2022/09/23 12:28:09;;;;;;;15.52;6.53;;;19.70;99.90;;;;;;4985565;28;20099;-70
2022/09/23 12:30:36;;;;;;;16.90;5.47;;;20.10;99.90;;;;;;5014840;28;20406;-71
2022/09/23 12:33:23;;;;;;;11.90;5.03;;;19.80;99.90;;;;;;5015362;28;20116;-70
2022/09/23 12:36:09;;;;;;;15.07;4.72;;;19.80;99.90;;;;;;5014036;28;20030;-70
2022/09/23 12:38:46;;;;;;;12.40;4.60;;;19.80;99.90;;;;;;5014530;28;20450;-70
2022/09/23 12:41:42;;;;;;;11.18;5.03;;;20.20;99.90;;;;;;5015053;28;20033;-70
2022/09/23 12:44:13;;;;;;;19.38;4.75;;;20.00;99.90;;;;;;5014381;28;20494;-70
2022/09/23 12:46:46;;;;;;;14.38;4.72;;;19.80;99.90;;;;;;5015156;28;20029;-70
2022/09/23 12:49:35;;;;;;;9.82;4.53;;;19.60;99.90;;;;;;5014996;28;20034;-71
2022/09/23 12:52:10;;;;;;;14.75;4.88;;;19.30;99.90;;;;;;5013451;28;20037;-70
2022/09/23 12:54:40;;;;;;;14.50;4.45;;;19.30;99.90;;;;;;5014844;28;20029;-71
2022/09/23 12:57:09;;;;;;;11.82;4.53;;;19.60;99.90;;;;;;5008301;28;20018;-70
2022/09/23 12:59:50;;;;;;;11.95;4.90;;;20.10;99.90;;;;;;5003968;28;20053;-70
2022/09/23 13:02:36;;;;;;;8.23;4.82;;;19.80;99.90;;;;;;5013276;28;20042;-70
2022/09/23 13:08:18;;;;;;;12.88;5.20;;;20.40;99.90;;;;;;5002433;28;20057;-71
2022/09/23 13:10:48;;;;;;;15.32;4.65;;;20.00;99.90;;;;;;5013111;28;20042;-70
2022/09/23 13:13:45;;;;;;;10.52;4.80;;;19.70;99.90;;;;;;5014260;28;20042;-71
2022/09/23 13:16:34;;;;;;;10.77;4.43;;;19.70;99.90;;;;;;5011148;28;20037;-70
2022/09/23 13:19:01;;;;;;;12.05;4.50;;;19.60;99.90;;;;;;5014545;28;20076;-71
2022/09/23 13:21:43;;;;;;;8.35;4.88;;;19.50;99.90;;;;;;5014044;28;20087;-70
2022/09/23 13:24:11;;;;;;;6.95;3.95;;;19.50;99.90;;;;;;5014222;28;20431;-70